首页
METAR-TAF:

METAR-TAF

机场 :

法阿國際機場

大溪地, 法属波利尼西亚

纬度: 17-33S, 经度: 149-37W, 海拔: 2米

当前天气观测

该预报发布于10分钟前的16:30 UTC
风速4节,风向,在东南南转西南之间变化
温度 26°C
湿度 79%
气压 1010 hPa
能见度10公里或以上
散云层高于2100英尺
多云层高于5000英尺
附近有阵雨

METAR: NTAA 131630Z 17004KT 140V210 9999 VCSH SCT021 BKN050 26/22 Q1010 NOSIG

时间: 06:40 (16:40 UTC)

预报

该预报发布于5小时和40分钟前的11:00 UTC
预报有效从13日的 12点(UTC)到 14日的 18点(UTC)
风速3节,风向多变
能见度10公里或以上
少量云层高于2000英尺
多云层高于5000英尺
几率 30% :
短暂存在
从 13日的 12点(UTC)到 14日的 03点(UTC)
风速15节,风向南转西南,有时为25节阵风
能見度: 3000
散云层高于1700英尺
多云层高于4000英尺
阵雨
从 14日的 0400点(UTC)
风速3节,风向多变
能见度10公里或以上
少量云层高于2300英尺
散云层高于5000英尺

TAF: NTAA 131100Z 1312/1418 VRB03KT 9999 FEW020 BKN050 PROB30 TEMPO 1312/1403 20015G25KT 3000 SHRA SCT017 BKN040 FM140400 VRB03KT 9999 FEW023 SCT050

超过4000个机场的气象观测和天气预报(METAR&TAF报告)。

可查询的气象台以黄色和红色小点在地图上表示。

将鼠标移到小点上方,可查看气象台名称。

然后点击查看天气观测和预报。

如需切换地图:点击带黑十字的绿色按钮放大地图;点击带横线的绿色按钮缩小地图;或者点击绿色箭头查看邻近地区的地图。


METAR-TAF: